Needham Market, United Kingdom
Current Conditions -  °F | °C
As of 5:50 PM on Wednesday 28 Jan 2015 (Local Time) from EGUW Reporting Station
Scattered Clouds Scattered Clouds  
Wind Chill: -2°   Ceiling: Unl
Heat Index:   Visibility: 6mi
Dew Point: -3°   Wind: 17mph
Humidity: 65%   Direction: 280°W
Pressure: 29.5"   Gusts: NA
Location:  52.16°N, 1.05°E
Report Text: EGUW 281750Z 28015KT 9999 SCT046 03/M03 Q0999 BLU NOSIG
Loading
Personal Weather Stations






























Interactive Weather Map New forecast layout! Learn more

10-Day Weather Forecast

Advertisements
Track Severe Weather on mobile